createdAt,value
2019-02-15T00:02:26.332Z,3.88
2019-02-15T00:04:54.819Z,3.93
2019-02-15T00:07:23.448Z,3.89
2019-02-15T00:09:51.873Z,3.82
2019-02-15T00:12:20.298Z,3.81
2019-02-15T00:14:49.157Z,3.84
2019-02-15T00:17:19.340Z,3.80
2019-02-15T00:19:52.371Z,3.90
2019-02-15T00:22:20.933Z,3.96
2019-02-15T00:24:49.364Z,4.03
2019-02-15T00:27:17.799Z,3.96
2019-02-15T00:29:46.295Z,4.05
2019-02-15T00:32:15.084Z,4.06
2019-02-15T00:34:43.516Z,4.10
2019-02-15T00:37:11.934Z,4.14
2019-02-15T00:39:40.503Z,4.10
2019-02-15T00:42:09.064Z,4.07
2019-02-15T00:44:37.547Z,4.02
2019-02-15T00:47:22.216Z,4.03
2019-02-15T00:49:52.568Z,4.02
2019-02-15T00:52:22.776Z,4.09
2019-02-15T00:55:07.703Z,4.14
2019-02-15T00:57:52.400Z,4.23
2019-02-15T01:00:22.513Z,4.08
2019-02-15T01:02:52.629Z,4.09
2019-02-15T01:05:22.809Z,4.11
2019-02-15T01:07:52.843Z,4.10
2019-02-15T01:10:37.884Z,4.12
2019-02-15T01:13:08.018Z,4.17
2019-02-15T01:15:36.501Z,4.22
2019-02-15T01:18:04.914Z,4.26
2019-02-15T01:20:33.418Z,4.28
2019-02-15T01:23:01.908Z,4.33
2019-02-15T01:25:32.110Z,4.32
2019-02-15T01:28:02.244Z,4.36
2019-02-15T01:30:48.643Z,4.42
2019-02-15T01:33:21.729Z,4.43
2019-02-15T01:36:03.594Z,4.42
2019-02-15T01:38:39.377Z,4.36
2019-02-15T01:41:12.572Z,4.36
2019-02-15T01:43:45.208Z,4.35
2019-02-15T01:46:18.087Z,4.35
2019-02-15T01:48:46.577Z,4.31
2019-02-15T01:51:15.135Z,4.28
2019-02-15T01:53:43.578Z,4.27
2019-02-15T01:56:11.985Z,4.31
2019-02-15T01:58:40.550Z,4.32
2019-02-15T02:01:09.175Z,4.31
2019-02-15T02:03:37.675Z,4.33
2019-02-15T02:06:06.161Z,4.31
2019-02-15T02:08:34.765Z,4.30
2019-02-15T02:11:03.275Z,4.34
2019-02-15T02:13:31.770Z,4.39
2019-02-15T02:16:00.212Z,4.39
2019-02-15T02:18:28.594Z,4.40
2019-02-15T02:20:57.151Z,4.34
2019-02-15T02:23:25.653Z,4.31
2019-02-15T02:25:54.154Z,4.24
2019-02-15T02:28:22.650Z,4.19
2019-02-15T02:30:51.211Z,4.13
2019-02-15T02:33:19.802Z,4.03
2019-02-15T02:35:48.356Z,3.97
2019-02-15T02:38:16.914Z,3.84
2019-02-15T02:40:45.332Z,3.84
2019-02-15T02:43:13.809Z,3.82
2019-02-15T02:45:42.361Z,3.74
2019-02-15T02:48:10.787Z,3.72
2019-02-15T02:50:39.295Z,3.72
2019-02-15T02:53:07.711Z,3.68
2019-02-15T02:55:36.189Z,3.69
2019-02-15T02:58:04.756Z,3.69
2019-02-15T03:00:33.962Z,3.72
2019-02-15T03:03:02.590Z,3.74
2019-02-15T03:05:31.149Z,3.74
2019-02-15T03:07:59.657Z,3.77
2019-02-15T03:10:28.081Z,3.82
2019-02-15T03:12:56.621Z,3.84
2019-02-15T03:15:25.131Z,3.82
2019-02-15T03:17:53.611Z,3.86
2019-02-15T03:20:30.777Z,3.93
2019-02-15T03:22:52.472Z,3.94
2019-02-15T03:25:21.012Z,3.95
2019-02-15T03:27:49.587Z,3.90
2019-02-15T03:30:18.170Z,3.97
2019-02-15T03:32:46.698Z,4.01
2019-02-15T03:35:15.336Z,4.00
2019-02-15T03:37:45.474Z,4.01
2019-02-15T03:40:21.557Z,4.07
2019-02-15T03:42:50.184Z,4.05
2019-02-15T03:45:18.820Z,4.07
2019-02-15T03:47:47.459Z,3.95
2019-02-15T03:50:16.019Z,3.95
2019-02-15T03:52:44.473Z,3.95
2019-02-15T03:55:12.946Z,3.88
2019-02-15T03:57:41.514Z,3.84
2019-02-15T04:00:12.262Z,3.85
2019-02-15T04:02:40.669Z,3.91
2019-02-15T04:05:09.210Z,3.89
2019-02-15T04:07:37.772Z,3.89
2019-02-15T04:10:08.400Z,3.95
2019-02-15T04:12:36.952Z,3.95
2019-02-15T04:15:06.972Z,4.00
2019-02-15T04:17:35.461Z,4.06
2019-02-15T04:20:05.281Z,4.11
2019-02-15T04:22:33.698Z,4.04
2019-02-15T04:25:02.122Z,4.05
2019-02-15T04:27:30.677Z,4.04
2019-02-15T04:29:59.175Z,4.09
2019-02-15T04:32:27.598Z,4.14
2019-02-15T04:34:56.168Z,4.19
2019-02-15T04:37:24.646Z,4.24
2019-02-15T04:39:53.216Z,4.24
2019-02-15T04:42:21.721Z,4.12
2019-02-15T04:44:50.340Z,4.03
2019-02-15T04:47:18.934Z,3.91
2019-02-15T04:49:47.409Z,3.86
2019-02-15T04:52:15.918Z,3.80
2019-02-15T04:54:44.471Z,3.80
2019-02-15T04:57:13.018Z,3.75
2019-02-15T04:59:41.596Z,3.78
2019-02-15T05:02:10.071Z,3.83
2019-02-15T05:04:38.608Z,3.89
2019-02-15T05:07:07.176Z,3.81
2019-02-15T05:09:35.671Z,3.82
2019-02-15T05:12:04.168Z,3.74
2019-02-15T05:14:52.769Z,3.67
2019-02-15T05:17:15.707Z,3.64
2019-02-15T05:19:44.119Z,3.62
2019-02-15T05:22:12.612Z,3.74
2019-02-15T05:24:41.103Z,3.75
2019-02-15T05:27:09.665Z,3.73
2019-02-15T05:29:38.220Z,3.78
2019-02-15T05:32:06.849Z,3.77
2019-02-15T05:34:35.528Z,3.79
2019-02-15T05:37:04.101Z,3.79
2019-02-15T05:39:32.654Z,3.80
2019-02-15T05:42:01.294Z,3.84
2019-02-15T05:44:29.786Z,3.84
2019-02-15T05:46:58.351Z,3.84
2019-02-15T05:49:26.892Z,3.75
2019-02-15T05:51:55.416Z,3.68
2019-02-15T05:54:24.046Z,3.73
2019-02-15T05:56:52.601Z,3.76
2019-02-15T05:59:21.183Z,3.72
2019-02-15T06:01:49.727Z,3.73
2019-02-15T06:04:18.411Z,3.81
2019-02-15T06:06:46.906Z,3.84
2019-02-15T06:09:15.541Z,3.85
2019-02-15T06:11:44.182Z,3.85
2019-02-15T06:14:12.723Z,3.89
2019-02-15T06:16:41.219Z,3.92
2019-02-15T06:19:09.791Z,4.06
2019-02-15T06:21:38.410Z,4.13
2019-02-15T06:24:06.976Z,4.06
2019-02-15T06:26:35.455Z,4.01
2019-02-15T06:29:04.010Z,4.02
2019-02-15T06:31:32.643Z,4.05
2019-02-15T06:34:01.216Z,4.00
2019-02-15T06:36:31.411Z,4.06
2019-02-15T06:38:59.979Z,4.09
2019-02-15T06:41:28.467Z,4.15
2019-02-15T06:43:57.039Z,4.24
2019-02-15T06:46:25.605Z,4.33
2019-02-15T06:48:54.247Z,4.34
2019-02-15T06:51:23.097Z,4.37
2019-02-15T06:53:51.515Z,4.38
2019-02-15T06:56:20.107Z,4.39
2019-02-15T06:59:06.281Z,4.41
2019-02-15T07:01:36.506Z,4.67
2019-02-15T07:04:06.709Z,4.91
2019-02-15T07:06:35.260Z,5.04
2019-02-15T07:09:04.769Z,5.11
2019-02-15T07:11:33.243Z,5.27
2019-02-15T07:14:01.807Z,5.10
2019-02-15T07:16:30.290Z,5.11
2019-02-15T07:18:58.697Z,5.12
2019-02-15T07:21:27.183Z,5.13
2019-02-15T07:23:55.744Z,5.19
2019-02-15T07:26:24.384Z,5.38
2019-02-15T07:28:52.936Z,5.54
2019-02-15T07:31:21.562Z,5.55
2019-02-15T07:33:50.196Z,5.60
2019-02-15T07:36:18.692Z,5.73
2019-02-15T07:38:47.248Z,5.81
2019-02-15T07:41:15.735Z,5.83
2019-02-15T07:43:44.283Z,5.83
2019-02-15T07:46:12.701Z,5.73
2019-02-15T07:48:41.330Z,5.54
2019-02-15T07:51:10.141Z,5.54
2019-02-15T07:53:38.715Z,5.62
2019-02-15T07:56:07.215Z,5.69
2019-02-15T07:58:35.720Z,5.78
2019-02-15T08:01:04.212Z,5.86
2019-02-15T08:03:32.799Z,5.99
2019-02-15T08:06:01.340Z,6.04
2019-02-15T08:08:29.836Z,5.95
2019-02-15T08:10:58.314Z,5.91
2019-02-15T08:13:26.882Z,6.01
2019-02-15T08:15:55.373Z,6.08
2019-02-15T08:18:23.960Z,6.08
2019-02-15T08:20:52.511Z,5.95
2019-02-15T08:23:20.996Z,5.93
2019-02-15T08:25:49.570Z,5.94
2019-02-15T08:28:18.164Z,5.86
2019-02-15T08:30:46.746Z,5.76
2019-02-15T08:33:15.313Z,5.99
2019-02-15T08:35:43.868Z,6.12
2019-02-15T08:38:12.419Z,6.14
2019-02-15T08:40:40.997Z,6.22
2019-02-15T08:43:09.385Z,6.32
2019-02-15T08:45:37.872Z,6.22
2019-02-15T08:48:06.428Z,6.21
2019-02-15T08:50:34.982Z,6.11
2019-02-15T08:53:03.468Z,5.94
2019-02-15T08:55:32.119Z,5.92
2019-02-15T08:58:00.672Z,5.76
2019-02-15T09:00:29.173Z,5.77
2019-02-15T09:02:57.783Z,5.79
2019-02-15T09:05:26.203Z,5.87
2019-02-15T09:07:54.693Z,5.85
2019-02-15T09:10:23.184Z,5.85
2019-02-15T09:12:51.646Z,5.74
2019-02-15T09:15:22.376Z,5.74
2019-02-15T09:17:51.007Z,5.72
2019-02-15T09:20:19.607Z,5.80
2019-02-15T09:22:48.141Z,5.77
2019-02-15T09:25:16.706Z,5.92
2019-02-15T09:28:03.152Z,6.14
2019-02-15T09:30:31.651Z,6.39
2019-02-15T09:33:00.108Z,6.56
2019-02-15T09:35:28.680Z,6.75
2019-02-15T09:37:57.146Z,6.97
2019-02-15T09:40:25.761Z,7.18
2019-02-15T09:42:54.250Z,7.22
2019-02-15T09:45:22.800Z,7.35
2019-02-15T09:47:52.030Z,7.61
2019-02-15T09:50:21.153Z,7.94
2019-02-15T09:52:50.315Z,8.00
2019-02-15T09:55:19.458Z,7.99
2019-02-15T09:57:48.776Z,7.88
2019-02-15T10:00:17.910Z,7.96
2019-02-15T10:02:47.055Z,7.98
2019-02-15T10:05:16.139Z,8.14
2019-02-15T10:07:45.272Z,8.29
2019-02-15T10:10:14.324Z,8.13
2019-02-15T10:12:43.500Z,8.21
2019-02-15T10:15:12.566Z,8.06
2019-02-15T10:17:41.685Z,8.30
2019-02-15T10:20:10.860Z,8.36
2019-02-15T10:22:40.000Z,8.20
2019-02-15T10:25:09.800Z,8.42
2019-02-15T10:27:38.948Z,8.62
2019-02-15T10:30:12.408Z,8.73
2019-02-15T10:32:41.621Z,8.70
2019-02-15T10:35:11.371Z,8.87
2019-02-15T10:37:40.522Z,9.23
2019-02-15T10:40:10.810Z,9.70
2019-02-15T10:42:39.891Z,9.92
2019-02-15T10:45:16.632Z,9.63
2019-02-15T10:47:45.805Z,9.60
2019-02-15T10:50:14.926Z,9.89
2019-02-15T10:52:44.151Z,9.66
2019-02-15T10:55:13.288Z,9.38
2019-02-15T10:57:42.451Z,9.04
2019-02-15T11:00:15.685Z,8.88
2019-02-15T11:02:45.052Z,8.98
2019-02-15T11:05:14.700Z,9.00
2019-02-15T11:07:43.709Z,8.95
2019-02-15T11:10:12.835Z,8.80
2019-02-15T11:12:42.054Z,8.59
2019-02-15T11:15:17.525Z,8.50
2019-02-15T11:17:46.701Z,8.35
2019-02-15T11:20:17.300Z,8.16
2019-02-15T11:22:46.369Z,8.30
2019-02-15T11:25:15.575Z,8.28
2019-02-15T11:27:44.736Z,8.23
2019-02-15T11:30:15.136Z,8.33
2019-02-15T11:32:44.254Z,8.20
2019-02-15T11:35:13.887Z,8.25
2019-02-15T11:37:43.100Z,8.32
2019-02-15T11:40:14.557Z,8.20
2019-02-15T11:42:43.632Z,8.16
2019-02-15T11:45:13.654Z,8.36
2019-02-15T11:47:42.790Z,8.21
2019-02-15T11:50:13.117Z,8.01
2019-02-15T11:52:42.257Z,8.16
2019-02-15T11:55:11.501Z,8.27
2019-02-15T11:57:40.648Z,8.16
2019-02-15T12:00:14.827Z,8.11
2019-02-15T12:02:44.177Z,8.13
2019-02-15T12:05:13.317Z,8.15
2019-02-15T12:07:42.518Z,8.28
2019-02-15T12:10:11.793Z,8.47
2019-02-15T12:12:40.921Z,8.41
2019-02-15T12:15:10.656Z,8.30
2019-02-15T12:17:39.800Z,8.24
2019-02-15T12:20:11.200Z,8.14
2019-02-15T12:22:40.338Z,8.34
2019-02-15T12:25:09.489Z,8.42
2019-02-15T12:27:38.632Z,8.23
2019-02-15T12:30:12.857Z,8.23
2019-02-15T12:32:41.942Z,8.10
2019-02-15T12:35:11.402Z,8.15
2019-02-15T12:37:40.445Z,7.98
2019-02-15T12:40:10.686Z,8.08
2019-02-15T12:42:39.907Z,7.94
2019-02-15T12:45:16.518Z,7.93
2019-02-15T12:47:45.722Z,8.02
2019-02-15T12:50:18.760Z,8.00
2019-02-15T12:52:47.945Z,7.93
2019-02-15T12:55:17.099Z,8.05
2019-02-15T12:57:46.300Z,8.05
2019-02-15T13:00:18.543Z,7.98
2019-02-15T13:02:47.636Z,8.16
2019-02-15T13:05:16.792Z,8.09
2019-02-15T13:07:45.995Z,8.03
2019-02-15T13:10:25.495Z,8.28
2019-02-15T13:12:54.550Z,8.25
2019-02-15T13:15:23.803Z,8.17
2019-02-15T13:17:52.967Z,8.30
2019-02-15T13:20:22.212Z,8.10
2019-02-15T13:22:51.288Z,7.99
2019-02-15T13:25:20.420Z,8.06
2019-02-15T13:27:49.639Z,8.12
2019-02-15T13:30:18.844Z,8.09
2019-02-15T13:32:47.435Z,8.16
2019-02-15T13:35:19.065Z,8.12
2019-02-15T13:37:48.137Z,7.92
2019-02-15T13:40:17.256Z,8.00
2019-02-15T13:42:46.389Z,8.34
2019-02-15T13:45:15.530Z,8.71
2019-02-15T13:47:44.678Z,8.87
2019-02-15T13:50:14.796Z,8.88
2019-02-15T13:52:43.802Z,8.82
2019-02-15T13:55:13.018Z,8.87
2019-02-15T13:57:42.130Z,8.78
2019-02-15T14:00:15.441Z,8.91
2019-02-15T14:02:44.490Z,8.83
2019-02-15T14:05:13.776Z,8.88
2019-02-15T14:07:42.987Z,8.84
2019-02-15T14:10:13.299Z,8.86
2019-02-15T14:12:42.496Z,8.89
2019-02-15T14:15:12.249Z,8.76
2019-02-15T14:17:48.026Z,8.60
2019-02-15T14:20:13.301Z,8.54
2019-02-15T14:22:42.308Z,8.43
2019-02-15T14:25:13.032Z,8.63
2019-02-15T14:27:42.200Z,8.32
2019-02-15T14:30:12.580Z,8.27
2019-02-15T14:32:41.828Z,8.12
2019-02-15T14:35:14.288Z,7.90
2019-02-15T14:37:43.432Z,8.02
2019-02-15T14:40:12.674Z,7.97
2019-02-15T14:42:41.298Z,7.79
2019-02-15T14:45:11.446Z,7.77
2019-02-15T14:47:40.803Z,7.93
2019-02-15T14:50:10.762Z,7.60
2019-02-15T14:52:39.321Z,7.35
2019-02-15T14:55:09.155Z,7.07
2019-02-15T14:57:37.631Z,6.91
2019-02-15T15:00:13.144Z,6.79
2019-02-15T15:02:41.698Z,6.76
2019-02-15T15:05:11.953Z,6.73
2019-02-15T15:07:40.427Z,6.69
2019-02-15T15:10:09.798Z,6.61
2019-02-15T15:12:38.415Z,6.62
2019-02-15T15:15:12.715Z,6.50
2019-02-15T15:17:41.279Z,6.48
2019-02-15T15:20:11.480Z,6.48
2019-02-15T15:22:40.108Z,6.40
2019-02-15T15:25:12.705Z,6.35
2019-02-15T15:27:41.269Z,6.36
2019-02-15T15:30:11.896Z,6.29
2019-02-15T15:32:40.457Z,6.20
2019-02-15T15:35:10.299Z,6.23
2019-02-15T15:37:38.866Z,6.10
2019-02-15T15:40:10.649Z,6.08
2019-02-15T15:42:39.221Z,6.03
2019-02-15T15:45:09.674Z,6.01
2019-02-15T15:47:38.312Z,5.91
2019-02-15T15:50:08.681Z,5.89
2019-02-15T15:52:37.299Z,5.84
2019-02-15T15:55:07.273Z,5.79
2019-02-15T15:57:35.859Z,5.76
2019-02-15T16:00:05.302Z,5.74
2019-02-15T16:02:33.934Z,5.79
2019-02-15T16:05:02.567Z,5.79
2019-02-15T16:07:31.205Z,5.73
2019-02-15T16:09:59.855Z,5.73
2019-02-15T16:12:28.498Z,5.73
2019-02-15T16:14:57.157Z,5.61
2019-02-15T16:17:27.443Z,5.63
2019-02-15T16:19:56.082Z,5.68
2019-02-15T16:22:26.061Z,5.61
2019-02-15T16:24:54.769Z,5.55
2019-02-15T16:27:23.335Z,5.45
2019-02-15T16:29:51.969Z,5.42
2019-02-15T16:32:20.615Z,5.46
2019-02-15T16:34:49.401Z,5.40
2019-02-15T16:37:18.037Z,5.34
2019-02-15T16:39:46.630Z,5.34
2019-02-15T16:42:15.275Z,5.35
2019-02-15T16:44:43.853Z,5.27
2019-02-15T16:47:12.348Z,5.33
2019-02-15T16:49:40.982Z,5.35
2019-02-15T16:52:09.623Z,5.32
2019-02-15T16:54:38.186Z,5.35
2019-02-15T16:57:06.769Z,5.30
2019-02-15T16:59:35.403Z,5.27
2019-02-15T17:02:03.978Z,5.27
2019-02-15T17:04:32.550Z,5.23
2019-02-15T17:07:01.118Z,5.24
2019-02-15T17:09:29.747Z,5.25
2019-02-15T17:12:00.146Z,5.23
2019-02-15T17:14:28.773Z,5.30
2019-02-15T17:16:57.421Z,5.40
2019-02-15T17:19:26.056Z,5.39
2019-02-15T17:21:54.572Z,5.39
2019-02-15T17:24:23.301Z,5.40
2019-02-15T17:26:51.966Z,5.45
2019-02-15T17:29:22.527Z,5.47
2019-02-15T17:31:51.187Z,5.48
2019-02-15T17:34:19.807Z,5.49
2019-02-15T17:36:48.421Z,5.52
2019-02-15T17:39:17.055Z,5.55
2019-02-15T17:41:45.682Z,5.54
2019-02-15T17:44:14.449Z,5.57
2019-02-15T17:46:43.099Z,5.64
2019-02-15T17:49:11.749Z,5.64
2019-02-15T17:51:41.953Z,5.67
2019-02-15T17:54:10.572Z,5.77
2019-02-15T17:56:39.086Z,5.78
2019-02-15T17:59:07.648Z,5.81
2019-02-15T18:01:36.303Z,5.79
2019-02-15T18:04:04.943Z,5.79
2019-02-15T18:06:33.586Z,5.70
2019-02-15T18:09:02.226Z,5.65
2019-02-15T18:11:30.869Z,5.63
2019-02-15T18:13:59.385Z,5.65
2019-02-15T18:16:28.265Z,5.67
2019-02-15T18:18:56.876Z,5.68
2019-02-15T18:21:25.514Z,5.66
2019-02-15T18:23:54.199Z,5.78
2019-02-15T18:26:22.920Z,5.78
2019-02-15T18:28:51.774Z,5.78
2019-02-15T18:31:20.409Z,5.84
2019-02-15T18:33:49.048Z,5.86
2019-02-15T18:36:17.713Z,5.91
2019-02-15T18:38:46.374Z,5.88
2019-02-15T18:41:15.010Z,5.90
2019-02-15T18:43:43.717Z,5.82
2019-02-15T18:46:12.407Z,5.70
2019-02-15T18:48:41.064Z,5.72
2019-02-15T18:51:09.672Z,5.74
2019-02-15T18:53:38.317Z,5.72
2019-02-15T18:56:06.966Z,5.72
2019-02-15T18:58:35.597Z,5.62
2019-02-15T19:01:04.181Z,5.54
2019-02-15T19:03:32.787Z,5.62
2019-02-15T19:06:01.446Z,5.62
2019-02-15T19:08:30.086Z,5.67
2019-02-15T19:10:58.758Z,5.63
2019-02-15T19:13:27.398Z,5.60
2019-02-15T19:15:56.038Z,5.65
2019-02-15T19:18:24.702Z,5.68
2019-02-15T19:20:53.404Z,5.71
2019-02-15T19:23:22.033Z,5.64
2019-02-15T19:25:50.706Z,5.58
2019-02-15T19:28:19.362Z,5.49
2019-02-15T19:30:47.925Z,5.50
2019-02-15T19:33:16.576Z,5.49
2019-02-15T19:35:45.213Z,5.46
2019-02-15T19:38:13.767Z,5.47
2019-02-15T19:40:42.426Z,5.41
2019-02-15T19:43:12.784Z,5.38
2019-02-15T19:45:41.362Z,5.33
2019-02-15T19:48:10.262Z,5.28
2019-02-15T19:50:38.850Z,5.25
2019-02-15T19:53:07.485Z,5.22
2019-02-15T19:55:36.046Z,5.19
2019-02-15T19:58:04.958Z,5.17
2019-02-15T20:00:35.487Z,5.16
2019-02-15T20:03:03.882Z,5.14
2019-02-15T20:05:32.528Z,5.11
2019-02-15T20:08:01.230Z,5.07
2019-02-15T20:10:30.563Z,5.09
2019-02-15T20:13:00.801Z,5.06
2019-02-15T20:15:29.630Z,5.08
2019-02-15T20:17:58.270Z,5.03
2019-02-15T20:20:26.769Z,4.97
2019-02-15T20:22:55.401Z,4.96
2019-02-15T20:25:23.965Z,4.86
2019-02-15T20:27:54.812Z,4.83
2019-02-15T20:30:23.853Z,4.78
2019-02-15T20:32:52.489Z,4.75
2019-02-15T20:35:21.119Z,4.83
2019-02-15T20:37:49.676Z,4.75
2019-02-15T20:40:18.428Z,4.65
2019-02-15T20:42:47.089Z,4.60
2019-02-15T20:45:21.138Z,4.58
2019-02-15T20:47:49.781Z,4.54
2019-02-15T20:50:18.945Z,4.52
2019-02-15T20:52:47.587Z,4.59
2019-02-15T20:55:18.491Z,4.60
2019-02-15T20:57:47.135Z,4.57
2019-02-15T21:00:21.593Z,4.58
2019-02-15T21:02:50.142Z,4.43
2019-02-15T21:05:18.628Z,4.32
2019-02-15T21:07:47.282Z,4.27
2019-02-15T21:10:15.895Z,4.27
2019-02-15T21:12:44.416Z,4.30
2019-02-15T21:15:14.026Z,4.25
2019-02-15T21:17:42.575Z,4.25
2019-02-15T21:20:12.420Z,4.25
2019-02-15T21:22:41.170Z,4.24
2019-02-15T21:25:11.713Z,4.19
2019-02-15T21:27:40.280Z,4.18
2019-02-15T21:30:14.653Z,4.18
2019-02-15T21:32:43.286Z,4.16
2019-02-15T21:35:11.851Z,4.09
2019-02-15T21:37:40.488Z,4.11
2019-02-15T21:40:17.290Z,4.07
2019-02-15T21:42:45.978Z,4.05
2019-02-15T21:45:14.500Z,4.10
2019-02-15T21:47:43.142Z,4.00
2019-02-15T21:50:17.256Z,3.92
2019-02-15T21:52:44.417Z,3.91
2019-02-15T21:55:14.165Z,3.91
2019-02-15T21:57:42.789Z,4.00
2019-02-15T22:00:14.784Z,3.99
2019-02-15T22:02:43.353Z,4.00
2019-02-15T22:05:12.000Z,3.98
2019-02-15T22:07:40.488Z,3.99
2019-02-15T22:10:09.861Z,3.98
2019-02-15T22:12:38.431Z,3.95
2019-02-15T22:15:10.130Z,3.93
2019-02-15T22:17:38.608Z,3.85
2019-02-15T22:20:10.062Z,3.81
2019-02-15T22:22:38.487Z,3.88
2019-02-15T22:25:07.802Z,3.95
2019-02-15T22:27:36.370Z,4.03
2019-02-15T22:30:15.387Z,4.05
2019-02-15T22:32:43.883Z,4.09
2019-02-15T22:35:12.482Z,4.06
2019-02-15T22:37:41.084Z,4.06
2019-02-15T22:40:30.079Z,3.99
2019-02-15T22:43:13.435Z,3.90
2019-02-15T22:45:42.009Z,3.96
2019-02-15T22:48:10.635Z,3.89
2019-02-15T22:50:39.197Z,3.93
2019-02-15T22:53:07.696Z,3.95
2019-02-15T22:55:36.244Z,3.95
2019-02-15T22:58:04.903Z,4.00
2019-02-15T23:00:55.881Z,3.96
2019-02-15T23:03:26.216Z,3.96
2019-02-15T23:05:54.772Z,3.87
2019-02-15T23:08:23.243Z,3.87
2019-02-15T23:10:51.731Z,3.94
2019-02-15T23:13:20.379Z,3.98
2019-02-15T23:15:49.021Z,4.04
2019-02-15T23:18:19.098Z,3.97
2019-02-15T23:20:47.637Z,4.03
2019-02-15T23:23:16.185Z,3.95
2019-02-15T23:25:44.742Z,3.94
2019-02-15T23:28:13.370Z,3.83
2019-02-15T23:30:41.968Z,3.84
2019-02-15T23:33:10.526Z,3.87
2019-02-15T23:35:39.088Z,3.83
2019-02-15T23:38:07.923Z,3.91
2019-02-15T23:40:36.421Z,3.93
2019-02-15T23:43:04.995Z,3.92
2019-02-15T23:45:33.410Z,3.86
2019-02-15T23:48:02.053Z,3.81
2019-02-15T23:50:30.544Z,3.88
2019-02-15T23:52:59.163Z,3.86
2019-02-15T23:55:27.661Z,3.90
2019-02-15T23:57:56.283Z,3.89
